sensor_id;sensor_type;location;lat;lon;timestamp;pressure;altitude;pressure_sealevel;temperature
76476;BMP280;65308;50.078;14.854;2024-03-22T00:01:45;99753.09;;;10.78
76476;BMP280;65308;50.078;14.854;2024-03-22T00:04:11;99754.97;;;10.65
76476;BMP280;65308;50.078;14.854;2024-03-22T00:06:38;99748.88;;;10.64
76476;BMP280;65308;50.078;14.854;2024-03-22T00:09:04;99747.19;;;10.70
76476;BMP280;65308;50.078;14.854;2024-03-22T00:11:30;99750.81;;;10.64
76476;BMP280;65308;50.078;14.854;2024-03-22T00:13:56;99753.97;;;10.75
76476;BMP280;65308;50.078;14.854;2024-03-22T00:16:23;99748.69;;;10.84
76476;BMP280;65308;50.078;14.854;2024-03-22T00:18:50;99750.44;;;10.91
76476;BMP280;65308;50.078;14.854;2024-03-22T00:21:16;99752.50;;;10.87
76476;BMP280;65308;50.078;14.854;2024-03-22T00:23:42;99751.22;;;10.62
76476;BMP280;65308;50.078;14.854;2024-03-22T00:26:09;99742.78;;;10.34
76476;BMP280;65308;50.078;14.854;2024-03-22T00:28:35;99734.38;;;10.49
76476;BMP280;65308;50.078;14.854;2024-03-22T00:31:01;99736.75;;;10.30
76476;BMP280;65308;50.078;14.854;2024-03-22T00:33:27;99738.72;;;10.14
76476;BMP280;65308;50.078;14.854;2024-03-22T00:35:55;99733.44;;;10.10
76476;BMP280;65308;50.078;14.854;2024-03-22T00:38:20;99724.09;;;10.18
76476;BMP280;65308;50.078;14.854;2024-03-22T00:40:47;99722.47;;;10.37
76476;BMP280;65308;50.078;14.854;2024-03-22T00:43:12;99726.56;;;10.54
76476;BMP280;65308;50.078;14.854;2024-03-22T00:45:39;99716.69;;;10.68
76476;BMP280;65308;50.078;14.854;2024-03-22T00:48:05;99717.34;;;10.84
76476;BMP280;65308;50.078;14.854;2024-03-22T00:50:32;99717.13;;;10.92
76476;BMP280;65308;50.078;14.854;2024-03-22T00:52:59;99714.66;;;10.97
76476;BMP280;65308;50.078;14.854;2024-03-22T00:55:28;99708.16;;;11.11
76476;BMP280;65308;50.078;14.854;2024-03-22T00:57:54;99712.56;;;11.18
76476;BMP280;65308;50.078;14.854;2024-03-22T01:00:20;99713.72;;;11.17
76476;BMP280;65308;50.078;14.854;2024-03-22T01:02:46;99711.28;;;11.22
76476;BMP280;65308;50.078;14.854;2024-03-22T01:05:13;99725.63;;;11.28
76476;BMP280;65308;50.078;14.854;2024-03-22T01:07:39;99712.75;;;11.36
76476;BMP280;65308;50.078;14.854;2024-03-22T01:10:08;99714.59;;;11.39
76476;BMP280;65308;50.078;14.854;2024-03-22T01:12:33;99712.13;;;11.45
76476;BMP280;65308;50.078;14.854;2024-03-22T01:15:00;99708.88;;;11.50
76476;BMP280;65308;50.078;14.854;2024-03-22T01:17:26;99702.38;;;11.51
76476;BMP280;65308;50.078;14.854;2024-03-22T01:19:52;99707.28;;;11.52
76476;BMP280;65308;50.078;14.854;2024-03-22T01:22:18;99712.88;;;11.58
76476;BMP280;65308;50.078;14.854;2024-03-22T01:24:44;99704.81;;;11.58
76476;BMP280;65308;50.078;14.854;2024-03-22T01:27:11;99708.56;;;11.61
76476;BMP280;65308;50.078;14.854;2024-03-22T01:29:38;99706.75;;;11.58
76476;BMP280;65308;50.078;14.854;2024-03-22T01:32:04;99717.03;;;11.59
76476;BMP280;65308;50.078;14.854;2024-03-22T01:34:31;99719.50;;;11.66
76476;BMP280;65308;50.078;14.854;2024-03-22T01:36:56;99719.72;;;11.72
76476;BMP280;65308;50.078;14.854;2024-03-22T01:39:23;99709.72;;;11.72
76476;BMP280;65308;50.078;14.854;2024-03-22T01:41:49;99716.59;;;11.73
76476;BMP280;65308;50.078;14.854;2024-03-22T01:44:18;99711.97;;;11.74
76476;BMP280;65308;50.078;14.854;2024-03-22T01:46:44;99717.22;;;11.77
76476;BMP280;65308;50.078;14.854;2024-03-22T01:49:12;99710.66;;;11.78
76476;BMP280;65308;50.078;14.854;2024-03-22T01:51:39;99714.72;;;11.83
76476;BMP280;65308;50.078;14.854;2024-03-22T01:54:08;99708.31;;;11.80
76476;BMP280;65308;50.078;14.854;2024-03-22T01:56:35;99705.09;;;11.73
76476;BMP280;65308;50.078;14.854;2024-03-22T01:59:04;99698.78;;;11.79
76476;BMP280;65308;50.078;14.854;2024-03-22T02:01:31;99708.59;;;11.83
76476;BMP280;65308;50.078;14.854;2024-03-22T02:03:58;99703.25;;;11.83
76476;BMP280;65308;50.078;14.854;2024-03-22T02:06:23;99697.47;;;11.84
76476;BMP280;65308;50.078;14.854;2024-03-22T02:08:50;99691.88;;;11.78
76476;BMP280;65308;50.078;14.854;2024-03-22T02:11:16;99690.41;;;11.77
76476;BMP280;65308;50.078;14.854;2024-03-22T02:13:42;99680.00;;;11.79
76476;BMP280;65308;50.078;14.854;2024-03-22T02:16:08;99679.09;;;11.83
76476;BMP280;65308;50.078;14.854;2024-03-22T02:18:36;99664.19;;;11.82
76476;BMP280;65308;50.078;14.854;2024-03-22T02:21:02;99661.53;;;11.82
76476;BMP280;65308;50.078;14.854;2024-03-22T02:23:32;99664.19;;;11.82
76476;BMP280;65308;50.078;14.854;2024-03-22T02:25:59;99670.31;;;11.82
76476;BMP280;65308;50.078;14.854;2024-03-22T02:28:25;99659.69;;;11.78
76476;BMP280;65308;50.078;14.854;2024-03-22T02:30:51;99664.31;;;11.78
76476;BMP280;65308;50.078;14.854;2024-03-22T02:33:17;99661.22;;;11.79
76476;BMP280;65308;50.078;14.854;2024-03-22T02:35:43;99651.13;;;11.84
76476;BMP280;65308;50.078;14.854;2024-03-22T02:38:12;99635.78;;;11.84
76476;BMP280;65308;50.078;14.854;2024-03-22T02:40:39;99638.00;;;11.86
76476;BMP280;65308;50.078;14.854;2024-03-22T02:43:06;99635.88;;;11.80
76476;BMP280;65308;50.078;14.854;2024-03-22T02:45:32;99625.47;;;11.83
76476;BMP280;65308;50.078;14.854;2024-03-22T02:47:58;99628.72;;;11.77
76476;BMP280;65308;50.078;14.854;2024-03-22T02:50:24;99618.97;;;11.71
76476;BMP280;65308;50.078;14.854;2024-03-22T02:52:50;99612.44;;;11.72
76476;BMP280;65308;50.078;14.854;2024-03-22T02:55:16;99618.53;;;11.72
76476;BMP280;65308;50.078;14.854;2024-03-22T02:57:44;99613.19;;;11.72
76476;BMP280;65308;50.078;14.854;2024-03-22T03:00:10;99605.69;;;11.67
76476;BMP280;65308;50.078;14.854;2024-03-22T03:02:37;99602.69;;;11.65
76476;BMP280;65308;50.078;14.854;2024-03-22T03:05:03;99599.69;;;11.63
76476;BMP280;65308;50.078;14.854;2024-03-22T03:07:31;99602.03;;;11.61
76476;BMP280;65308;50.078;14.854;2024-03-22T03:09:56;99602.94;;;11.58
76476;BMP280;65308;50.078;14.854;2024-03-22T03:12:23;99600.56;;;11.47
76476;BMP280;65308;50.078;14.854;2024-03-22T03:14:50;99599.84;;;11.47
76476;BMP280;65308;50.078;14.854;2024-03-22T03:17:16;99597.91;;;11.47
76476;BMP280;65308;50.078;14.854;2024-03-22T03:19:42;99592.22;;;11.58
76476;BMP280;65308;50.078;14.854;2024-03-22T03:22:08;99595.69;;;11.46
76476;BMP280;65308;50.078;14.854;2024-03-22T03:24:34;99606.41;;;11.46
76476;BMP280;65308;50.078;14.854;2024-03-22T03:27:01;99606.41;;;11.46
76476;BMP280;65308;50.078;14.854;2024-03-22T03:29:27;99591.38;;;11.48
76476;BMP280;65308;50.078;14.854;2024-03-22T03:31:55;99585.91;;;11.52
76476;BMP280;65308;50.078;14.854;2024-03-22T03:34:21;99578.47;;;11.56
76476;BMP280;65308;50.078;14.854;2024-03-22T03:36:48;99576.69;;;11.53
76476;BMP280;65308;50.078;14.854;2024-03-22T03:39:13;99575.16;;;11.52
76476;BMP280;65308;50.078;14.854;2024-03-22T03:41:40;99580.13;;;11.53
76476;BMP280;65308;50.078;14.854;2024-03-22T03:44:05;99578.59;;;11.52
76476;BMP280;65308;50.078;14.854;2024-03-22T03:46:33;99567.53;;;11.50
76476;BMP280;65308;50.078;14.854;2024-03-22T03:49:00;99569.72;;;11.43
76476;BMP280;65308;50.078;14.854;2024-03-22T03:51:26;99568.88;;;11.46
76476;BMP280;65308;50.078;14.854;2024-03-22T03:53:52;99581.41;;;11.49
76476;BMP280;65308;50.078;14.854;2024-03-22T03:56:18;99569.47;;;11.50
76476;BMP280;65308;50.078;14.854;2024-03-22T03:58:45;99564.75;;;11.54
76476;BMP280;65308;50.078;14.854;2024-03-22T04:01:12;99571.25;;;11.44
76476;BMP280;65308;50.078;14.854;2024-03-22T04:03:37;99577.19;;;11.48
76476;BMP280;65308;50.078;14.854;2024-03-22T04:06:05;99567.94;;;11.40
76476;BMP280;65308;50.078;14.854;2024-03-22T04:08:31;99573.06;;;11.34
76476;BMP280;65308;50.078;14.854;2024-03-22T04:10:59;99568.56;;;11.31
76476;BMP280;65308;50.078;14.854;2024-03-22T04:13:25;99568.16;;;11.32
76476;BMP280;65308;50.078;14.854;2024-03-22T04:15:52;99569.13;;;11.26
76476;BMP280;65308;50.078;14.854;2024-03-22T04:18:17;99559.91;;;11.27
76476;BMP280;65308;50.078;14.854;2024-03-22T04:20:53;99562.59;;;11.27
76476;BMP280;65308;50.078;14.854;2024-03-22T04:23:20;99560.22;;;11.29
76476;BMP280;65308;50.078;14.854;2024-03-22T04:25:52;99560.66;;;11.27
76476;BMP280;65308;50.078;14.854;2024-03-22T04:28:17;99551.88;;;11.27
76476;BMP280;65308;50.078;14.854;2024-03-22T04:30:54;99550.25;;;11.29
76476;BMP280;65308;50.078;14.854;2024-03-22T04:33:19;99546.06;;;11.28
76476;BMP280;65308;50.078;14.854;2024-03-22T04:35:46;99552.31;;;11.25
76476;BMP280;65308;50.078;14.854;2024-03-22T04:38:12;99548.56;;;11.23
76476;BMP280;65308;50.078;14.854;2024-03-22T04:40:40;99544.38;;;11.22
76476;BMP280;65308;50.078;14.854;2024-03-22T04:43:07;99545.88;;;11.23
76476;BMP280;65308;50.078;14.854;2024-03-22T04:45:34;99546.19;;;11.12
76476;BMP280;65308;50.078;14.854;2024-03-22T04:48:01;99547.09;;;11.09
76476;BMP280;65308;50.078;14.854;2024-03-22T04:50:27;99555.88;;;11.10
76476;BMP280;65308;50.078;14.854;2024-03-22T04:52:53;99552.56;;;11.05
76476;BMP280;65308;50.078;14.854;2024-03-22T04:55:19;99557.16;;;11.05
76476;BMP280;65308;50.078;14.854;2024-03-22T04:57:47;99562.84;;;11.07
76476;BMP280;65308;50.078;14.854;2024-03-22T05:00:15;99560.38;;;11.00
76476;BMP280;65308;50.078;14.854;2024-03-22T05:02:40;99560.53;;;10.96
76476;BMP280;65308;50.078;14.854;2024-03-22T05:05:07;99548.72;;;10.94
76476;BMP280;65308;50.078;14.854;2024-03-22T05:07:33;99548.41;;;10.92
76476;BMP280;65308;50.078;14.854;2024-03-22T05:10:00;99553.97;;;10.84
76476;BMP280;65308;50.078;14.854;2024-03-22T05:12:25;99542.81;;;10.86
76476;BMP280;65308;50.078;14.854;2024-03-22T05:14:53;99542.97;;;10.82
76476;BMP280;65308;50.078;14.854;2024-03-22T05:17:19;99545.38;;;10.77
76476;BMP280;65308;50.078;14.854;2024-03-22T05:19:45;99557.19;;;10.79
76476;BMP280;65308;50.078;14.854;2024-03-22T05:22:11;99562.44;;;10.83
76476;BMP280;65308;50.078;14.854;2024-03-22T05:24:38;99554.31;;;10.87
76476;BMP280;65308;50.078;14.854;2024-03-22T05:27:03;99560.59;;;10.93
76476;BMP280;65308;50.078;14.854;2024-03-22T05:29:30;99560.94;;;10.95
76476;BMP280;65308;50.078;14.854;2024-03-22T05:31:57;99571.09;;;11.00
76476;BMP280;65308;50.078;14.854;2024-03-22T05:34:24;99569.06;;;11.04
76476;BMP280;65308;50.078;14.854;2024-03-22T05:36:49;99572.47;;;11.04
76476;BMP280;65308;50.078;14.854;2024-03-22T05:39:16;99560.16;;;11.07
76476;BMP280;65308;50.078;14.854;2024-03-22T05:41:41;99559.41;;;11.06
76476;BMP280;65308;50.078;14.854;2024-03-22T05:44:08;99562.66;;;11.01
76476;BMP280;65308;50.078;14.854;2024-03-22T05:46:33;99563.28;;;11.05
76476;BMP280;65308;50.078;14.854;2024-03-22T05:49:01;99562.31;;;10.99
76476;BMP280;65308;50.078;14.854;2024-03-22T05:51:28;99554.59;;;11.01
76476;BMP280;65308;50.078;14.854;2024-03-22T05:53:55;99560.38;;;11.00
76476;BMP280;65308;50.078;14.854;2024-03-22T05:56:21;99564.88;;;11.03
76476;BMP280;65308;50.078;14.854;2024-03-22T05:58:48;99552.97;;;10.91
76476;BMP280;65308;50.078;14.854;2024-03-22T06:01:14;99557.38;;;10.98
76476;BMP280;65308;50.078;14.854;2024-03-22T06:03:40;99556.00;;;10.93
76476;BMP280;65308;50.078;14.854;2024-03-22T06:06:07;99555.06;;;10.87
76476;BMP280;65308;50.078;14.854;2024-03-22T06:08:34;99555.91;;;10.97
76476;BMP280;65308;50.078;14.854;2024-03-22T06:11:00;99555.34;;;11.02
76476;BMP280;65308;50.078;14.854;2024-03-22T06:13:27;99545.56;;;11.21
76476;BMP280;65308;50.078;14.854;2024-03-22T06:15:52;99557.53;;;11.29
76476;BMP280;65308;50.078;14.854;2024-03-22T06:18:19;99556.94;;;11.47
76476;BMP280;65308;50.078;14.854;2024-03-22T06:20:45;99561.81;;;11.61
76476;BMP280;65308;50.078;14.854;2024-03-22T06:23:13;99562.97;;;11.73
76476;BMP280;65308;50.078;14.854;2024-03-22T06:25:38;99551.19;;;11.70
76476;BMP280;65308;50.078;14.854;2024-03-22T06:28:05;99549.66;;;11.69
76476;BMP280;65308;50.078;14.854;2024-03-22T06:30:31;99552.16;;;11.86
76476;BMP280;65308;50.078;14.854;2024-03-22T06:32:57;99560.91;;;11.99
76476;BMP280;65308;50.078;14.854;2024-03-22T06:35:23;99554.91;;;12.17
76476;BMP280;65308;50.078;14.854;2024-03-22T06:37:49;99543.19;;;12.33
76476;BMP280;65308;50.078;14.854;2024-03-22T06:40:16;99547.97;;;12.38
76476;BMP280;65308;50.078;14.854;2024-03-22T06:42:43;99546.22;;;12.44
76476;BMP280;65308;50.078;14.854;2024-03-22T06:45:09;99543.31;;;12.69
76476;BMP280;65308;50.078;14.854;2024-03-22T06:47:36;99547.69;;;12.85
76476;BMP280;65308;50.078;14.854;2024-03-22T06:50:01;99542.03;;;13.01
76476;BMP280;65308;50.078;14.854;2024-03-22T06:52:28;99546.69;;;13.10
76476;BMP280;65308;50.078;14.854;2024-03-22T06:54:54;99545.50;;;13.39
76476;BMP280;65308;50.078;14.854;2024-03-22T06:57:22;99536.47;;;13.88
76476;BMP280;65308;50.078;14.854;2024-03-22T06:59:47;99532.25;;;14.29
76476;BMP280;65308;50.078;14.854;2024-03-22T07:02:14;99533.56;;;14.67
76476;BMP280;65308;50.078;14.854;2024-03-22T07:04:40;99528.91;;;15.30
76476;BMP280;65308;50.078;14.854;2024-03-22T07:07:06;99541.97;;;16.87
76476;BMP280;65308;50.078;14.854;2024-03-22T07:09:32;99547.41;;;18.51
76476;BMP280;65308;50.078;14.854;2024-03-22T07:11:59;99538.91;;;20.51
76476;BMP280;65308;50.078;14.854;2024-03-22T07:14:26;99550.81;;;22.92
76476;BMP280;65308;50.078;14.854;2024-03-22T07:16:53;99553.97;;;24.29
76476;BMP280;65308;50.078;14.854;2024-03-22T07:19:19;99541.13;;;24.37
76476;BMP280;65308;50.078;14.854;2024-03-22T07:21:45;99559.50;;;25.41
76476;BMP280;65308;50.078;14.854;2024-03-22T07:24:11;99536.44;;;26.92
76476;BMP280;65308;50.078;14.854;2024-03-22T07:26:38;99539.19;;;26.62
76476;BMP280;65308;50.078;14.854;2024-03-22T07:29:04;99537.81;;;25.94
76476;BMP280;65308;50.078;14.854;2024-03-22T07:31:32;99537.66;;;25.56
76476;BMP280;65308;50.078;14.854;2024-03-22T07:33:57;99541.16;;;24.78
76476;BMP280;65308;50.078;14.854;2024-03-22T07:36:24;99532.88;;;24.50
76476;BMP280;65308;50.078;14.854;2024-03-22T07:38:52;99529.72;;;24.12
76476;BMP280;65308;50.078;14.854;2024-03-22T07:41:18;99529.94;;;24.35
76476;BMP280;65308;50.078;14.854;2024-03-22T07:43:44;99530.50;;;24.33
76476;BMP280;65308;50.078;14.854;2024-03-22T07:46:10;99540.63;;;24.59
76476;BMP280;65308;50.078;14.854;2024-03-22T07:48:38;99520.09;;;25.51
76476;BMP280;65308;50.078;14.854;2024-03-22T07:51:05;99519.13;;;25.49
76476;BMP280;65308;50.078;14.854;2024-03-22T07:53:30;99507.69;;;25.22
76476;BMP280;65308;50.078;14.854;2024-03-22T07:55:57;99519.72;;;24.90
76476;BMP280;65308;50.078;14.854;2024-03-22T07:58:22;99514.53;;;24.45
76476;BMP280;65308;50.078;14.854;2024-03-22T08:00:49;99510.81;;;24.35
76476;BMP280;65308;50.078;14.854;2024-03-22T08:03:15;99506.72;;;24.28
76476;BMP280;65308;50.078;14.854;2024-03-22T08:05:44;99501.44;;;24.43
76476;BMP280;65308;50.078;14.854;2024-03-22T08:08:09;99504.56;;;24.47
76476;BMP280;65308;50.078;14.854;2024-03-22T08:10:36;99497.81;;;24.48
76476;BMP280;65308;50.078;14.854;2024-03-22T08:13:01;99497.47;;;24.52
76476;BMP280;65308;50.078;14.854;2024-03-22T08:15:29;99497.75;;;24.62
76476;BMP280;65308;50.078;14.854;2024-03-22T08:17:55;99500.97;;;24.53
76476;BMP280;65308;50.078;14.854;2024-03-22T08:20:22;99496.94;;;24.54
76476;BMP280;65308;50.078;14.854;2024-03-22T08:22:49;99502.75;;;26.23
76476;BMP280;65308;50.078;14.854;2024-03-22T08:25:16;99498.25;;;28.07
76476;BMP280;65308;50.078;14.854;2024-03-22T08:27:42;99491.38;;;29.45
76476;BMP280;65308;50.078;14.854;2024-03-22T08:30:10;99485.84;;;30.08
76476;BMP280;65308;50.078;14.854;2024-03-22T08:32:36;99477.88;;;31.28
76476;BMP280;65308;50.078;14.854;2024-03-22T08:35:04;99489.38;;;32.06
76476;BMP280;65308;50.078;14.854;2024-03-22T08:37:29;99475.44;;;32.25
76476;BMP280;65308;50.078;14.854;2024-03-22T08:39:57;99477.88;;;32.09
76476;BMP280;65308;50.078;14.854;2024-03-22T08:42:23;99473.66;;;32.63
76476;BMP280;65308;50.078;14.854;2024-03-22T08:44:49;99470.38;;;32.55
76476;BMP280;65308;50.078;14.854;2024-03-22T08:47:15;99470.66;;;32.59
76476;BMP280;65308;50.078;14.854;2024-03-22T08:49:42;99469.59;;;32.42
76476;BMP280;65308;50.078;14.854;2024-03-22T08:52:09;99458.97;;;32.39
76476;BMP280;65308;50.078;14.854;2024-03-22T08:54:36;99457.25;;;32.34
76476;BMP280;65308;50.078;14.854;2024-03-22T08:57:03;99451.78;;;32.03
76476;BMP280;65308;50.078;14.854;2024-03-22T08:59:29;99445.13;;;31.75
76476;BMP280;65308;50.078;14.854;2024-03-22T09:01:55;99448.53;;;31.85
76476;BMP280;65308;50.078;14.854;2024-03-22T09:04:22;99432.75;;;31.66
76476;BMP280;65308;50.078;14.854;2024-03-22T09:06:47;99433.28;;;31.53
76476;BMP280;65308;50.078;14.854;2024-03-22T09:09:14;99427.84;;;31.14
76476;BMP280;65308;50.078;14.854;2024-03-22T09:11:39;99436.63;;;31.01
76476;BMP280;65308;50.078;14.854;2024-03-22T09:14:07;99420.97;;;30.65
76476;BMP280;65308;50.078;14.854;2024-03-22T09:16:33;99425.31;;;30.20
76476;BMP280;65308;50.078;14.854;2024-03-22T09:18:59;99423.84;;;30.09
76476;BMP280;65308;50.078;14.854;2024-03-22T09:21:25;99425.28;;;30.00
76476;BMP280;65308;50.078;14.854;2024-03-22T09:23:52;99414.06;;;29.89
76476;BMP280;65308;50.078;14.854;2024-03-22T09:26:17;99410.31;;;29.57
76476;BMP280;65308;50.078;14.854;2024-03-22T09:28:45;99411.63;;;29.66
76476;BMP280;65308;50.078;14.854;2024-03-22T09:31:12;99404.84;;;29.40
76476;BMP280;65308;50.078;14.854;2024-03-22T09:33:39;99397.84;;;29.29
76476;BMP280;65308;50.078;14.854;2024-03-22T09:36:06;99405.97;;;29.27
76476;BMP280;65308;50.078;14.854;2024-03-22T09:38:32;99394.25;;;29.36
76476;BMP280;65308;50.078;14.854;2024-03-22T09:40:58;99400.97;;;29.43
76476;BMP280;65308;50.078;14.854;2024-03-22T09:43:27;99398.00;;;29.31
76476;BMP280;65308;50.078;14.854;2024-03-22T09:45:53;99399.81;;;28.40
76476;BMP280;65308;50.078;14.854;2024-03-22T09:48:22;99391.50;;;28.06
76476;BMP280;65308;50.078;14.854;2024-03-22T09:50:48;99398.97;;;27.88
76476;BMP280;65308;50.078;14.854;2024-03-22T09:53:18;99389.34;;;28.04
76476;BMP280;65308;50.078;14.854;2024-03-22T09:55:44;99386.97;;;27.76
76476;BMP280;65308;50.078;14.854;2024-03-22T09:58:11;99379.56;;;27.86
76476;BMP280;65308;50.078;14.854;2024-03-22T10:00:37;99374.69;;;27.77
76476;BMP280;65308;50.078;14.854;2024-03-22T10:03:04;99378.81;;;27.60
76476;BMP280;65308;50.078;14.854;2024-03-22T10:05:32;99374.81;;;27.29
76476;BMP280;65308;50.078;14.854;2024-03-22T10:07:58;99370.44;;;27.18
76476;BMP280;65308;50.078;14.854;2024-03-22T10:10:24;99374.66;;;26.71
76476;BMP280;65308;50.078;14.854;2024-03-22T10:12:51;99370.72;;;26.11
76476;BMP280;65308;50.078;14.854;2024-03-22T10:15:18;99365.22;;;26.04
76476;BMP280;65308;50.078;14.854;2024-03-22T10:17:45;99367.41;;;25.90
76476;BMP280;65308;50.078;14.854;2024-03-22T10:20:12;99361.28;;;25.46
76476;BMP280;65308;50.078;14.854;2024-03-22T10:22:43;99357.25;;;25.39
76476;BMP280;65308;50.078;14.854;2024-03-22T10:25:09;99354.16;;;25.35
76476;BMP280;65308;50.078;14.854;2024-03-22T10:27:38;99357.03;;;25.22
76476;BMP280;65308;50.078;14.854;2024-03-22T10:30:08;99353.38;;;24.83
76476;BMP280;65308;50.078;14.854;2024-03-22T10:32:35;99347.31;;;24.77
76476;BMP280;65308;50.078;14.854;2024-03-22T10:35:02;99349.03;;;24.59
76476;BMP280;65308;50.078;14.854;2024-03-22T10:37:31;99336.09;;;24.60
76476;BMP280;65308;50.078;14.854;2024-03-22T10:40:01;99339.78;;;24.41
76476;BMP280;65308;50.078;14.854;2024-03-22T10:42:33;99344.91;;;24.45
76476;BMP280;65308;50.078;14.854;2024-03-22T10:44:58;99342.13;;;24.37
76476;BMP280;65308;50.078;14.854;2024-03-22T10:47:29;99334.56;;;24.22
76476;BMP280;65308;50.078;14.854;2024-03-22T10:50:00;99339.09;;;23.99
76476;BMP280;65308;50.078;14.854;2024-03-22T10:52:28;99337.81;;;24.00
76476;BMP280;65308;50.078;14.854;2024-03-22T10:54:55;99323.56;;;23.94
76476;BMP280;65308;50.078;14.854;2024-03-22T10:57:22;99322.22;;;23.87
76476;BMP280;65308;50.078;14.854;2024-03-22T10:59:55;99318.31;;;23.62
76476;BMP280;65308;50.078;14.854;2024-03-22T11:02:23;99326.81;;;23.37
76476;BMP280;65308;50.078;14.854;2024-03-22T11:04:55;99305.25;;;23.34
76476;BMP280;65308;50.078;14.854;2024-03-22T11:07:21;99306.47;;;23.25
76476;BMP280;65308;50.078;14.854;2024-03-22T11:09:52;99301.66;;;23.18
76476;BMP280;65308;50.078;14.854;2024-03-22T11:12:18;99305.97;;;23.00
76476;BMP280;65308;50.078;14.854;2024-03-22T11:14:47;99297.41;;;22.56
76476;BMP280;65308;50.078;14.854;2024-03-22T11:17:15;99281.63;;;22.63
76476;BMP280;65308;50.078;14.854;2024-03-22T11:19:41;99281.31;;;22.79
76476;BMP280;65308;50.078;14.854;2024-03-22T11:22:08;99277.13;;;22.78
76476;BMP280;65308;50.078;14.854;2024-03-22T11:24:33;99272.38;;;22.79
76476;BMP280;65308;50.078;14.854;2024-03-22T11:27:00;99270.28;;;22.72
76476;BMP280;65308;50.078;14.854;2024-03-22T11:29:26;99269.88;;;22.54
76476;BMP280;65308;50.078;14.854;2024-03-22T11:31:54;99269.88;;;22.41
76476;BMP280;65308;50.078;14.854;2024-03-22T11:34:21;99265.25;;;22.49
76476;BMP280;65308;50.078;14.854;2024-03-22T11:36:46;99271.34;;;22.69
76476;BMP280;65308;50.078;14.854;2024-03-22T11:39:15;99260.84;;;22.46
76476;BMP280;65308;50.078;14.854;2024-03-22T11:41:40;99254.66;;;22.46
76476;BMP280;65308;50.078;14.854;2024-03-22T11:46:33;99251.41;;;22.34
76476;BMP280;65308;50.078;14.854;2024-03-22T11:49:01;99245.19;;;22.20
76476;BMP280;65308;50.078;14.854;2024-03-22T11:51:26;99242.78;;;22.17
76476;BMP280;65308;50.078;14.854;2024-03-22T11:53:54;99238.06;;;22.17
76476;BMP280;65308;50.078;14.854;2024-03-22T11:56:21;99237.22;;;22.09
76476;BMP280;65308;50.078;14.854;2024-03-22T11:58:48;99239.63;;;22.13
76476;BMP280;65308;50.078;14.854;2024-03-22T12:01:15;99235.75;;;22.08
76476;BMP280;65308;50.078;14.854;2024-03-22T12:03:43;99210.50;;;22.21
76476;BMP280;65308;50.078;14.854;2024-03-22T12:06:10;99216.16;;;22.49
76476;BMP280;65308;50.078;14.854;2024-03-22T12:08:37;99216.06;;;22.68
76476;BMP280;65308;50.078;14.854;2024-03-22T12:11:03;99207.97;;;22.76
76476;BMP280;65308;50.078;14.854;2024-03-22T12:13:30;99201.13;;;22.82
76476;BMP280;65308;50.078;14.854;2024-03-22T12:15:56;99196.41;;;22.83
76476;BMP280;65308;50.078;14.854;2024-03-22T12:18:22;99181.69;;;22.86
76476;BMP280;65308;50.078;14.854;2024-03-22T12:20:48;99190.78;;;22.68
76476;BMP280;65308;50.078;14.854;2024-03-22T12:23:16;99193.63;;;22.22
76476;BMP280;65308;50.078;14.854;2024-03-22T12:25:41;99188.44;;;22.06
76476;BMP280;65308;50.078;14.854;2024-03-22T12:28:08;99184.47;;;22.20
76476;BMP280;65308;50.078;14.854;2024-03-22T12:30:33;99175.34;;;22.04
76476;BMP280;65308;50.078;14.854;2024-03-22T12:33:01;99171.66;;;22.01
76476;BMP280;65308;50.078;14.854;2024-03-22T12:35:26;99167.06;;;22.10
76476;BMP280;65308;50.078;14.854;2024-03-22T12:37:53;99163.16;;;21.79
76476;BMP280;65308;50.078;14.854;2024-03-22T12:40:20;99155.44;;;21.51
76476;BMP280;65308;50.078;14.854;2024-03-22T12:42:47;99152.13;;;21.58
76476;BMP280;65308;50.078;14.854;2024-03-22T12:45:12;99162.78;;;21.56
76476;BMP280;65308;50.078;14.854;2024-03-22T12:47:39;99156.44;;;21.47
76476;BMP280;65308;50.078;14.854;2024-03-22T12:50:05;99162.13;;;21.49
76476;BMP280;65308;50.078;14.854;2024-03-22T12:52:32;99156.88;;;21.52
76476;BMP280;65308;50.078;14.854;2024-03-22T12:54:58;99141.31;;;21.33
76476;BMP280;65308;50.078;14.854;2024-03-22T12:57:27;99145.63;;;21.10
76476;BMP280;65308;50.078;14.854;2024-03-22T12:59:52;99152.91;;;21.20
76476;BMP280;65308;50.078;14.854;2024-03-22T13:02:19;99149.59;;;21.09
76476;BMP280;65308;50.078;14.854;2024-03-22T13:04:44;99133.72;;;21.13
76476;BMP280;65308;50.078;14.854;2024-03-22T13:07:11;99138.81;;;21.03
76476;BMP280;65308;50.078;14.854;2024-03-22T13:09:37;99134.22;;;20.74
76476;BMP280;65308;50.078;14.854;2024-03-22T13:12:04;99121.66;;;20.52
76476;BMP280;65308;50.078;14.854;2024-03-22T13:14:31;99124.25;;;20.38
76476;BMP280;65308;50.078;14.854;2024-03-22T13:16:57;99120.41;;;20.28
76476;BMP280;65308;50.078;14.854;2024-03-22T13:19:23;99110.72;;;20.33
76476;BMP280;65308;50.078;14.854;2024-03-22T13:21:50;99117.75;;;20.47
76476;BMP280;65308;50.078;14.854;2024-03-22T13:24:15;99097.13;;;20.33
76476;BMP280;65308;50.078;14.854;2024-03-22T13:26:43;99110.63;;;20.20
76476;BMP280;65308;50.078;14.854;2024-03-22T13:29:08;99095.91;;;20.09
76476;BMP280;65308;50.078;14.854;2024-03-22T13:31:36;99090.06;;;20.00
76476;BMP280;65308;50.078;14.854;2024-03-22T13:34:02;99084.59;;;19.75
76476;BMP280;65308;50.078;14.854;2024-03-22T13:36:29;99084.00;;;19.88
76476;BMP280;65308;50.078;14.854;2024-03-22T13:38:57;99081.81;;;19.86
76476;BMP280;65308;50.078;14.854;2024-03-22T13:41:24;99072.47;;;19.82
76476;BMP280;65308;50.078;14.854;2024-03-22T13:43:50;99074.63;;;19.89
76476;BMP280;65308;50.078;14.854;2024-03-22T13:46:16;99069.47;;;19.85
76476;BMP280;65308;50.078;14.854;2024-03-22T13:48:44;99070.94;;;19.86
76476;BMP280;65308;50.078;14.854;2024-03-22T13:51:10;99061.19;;;19.72
76476;BMP280;65308;50.078;14.854;2024-03-22T13:53:36;99060.31;;;19.58
76476;BMP280;65308;50.078;14.854;2024-03-22T13:56:03;99056.09;;;19.63